Time;durP1;ratioP1;P1;durP2;ratioP2;P2;SDS_P1;SDS_P2;PMS_P1;PMS_P2;Temp;Humidity;BMP_temperature;BMP_pressure;BME280_temperature;BME280_humidity;BME280_pressure;Samples;Min_cycle;Max_cycle;Signal;HPM_P1;HPM_P2
2022/11/09 06:04:08;;;;;;;7.28;2.17;;;;;;;11.87;99.16;100462.19;5031060;28;20061;-75
2022/11/09 06:06:33;;;;;;;7.97;2.85;;;;;;;11.88;98.49;100458.19;5043691;28;20028;-76
2022/11/09 06:08:58;;;;;;;10.07;3.10;;;;;;;11.80;98.79;100452.56;5040154;28;20032;-76
2022/11/09 06:11:24;;;;;;;11.07;2.97;;;;;;;11.79;99.41;100464.19;5069104;22;20033;-75
2022/11/09 06:13:50;;;;;;;11.70;3.13;;;;;;;11.78;99.16;100459.75;5048626;28;21492;-76
2022/11/09 06:16:15;;;;;;;12.98;2.70;;;;;;;11.85;98.78;100468.19;5056655;28;20298;-75
2022/11/09 06:18:41;;;;;;;12.77;2.88;;;;;;;11.84;98.80;100463.78;5057460;28;20518;-76
2022/11/09 06:21:06;;;;;;;8.05;2.55;;;;;;;11.93;98.60;100475.47;5038771;28;20513;-75
2022/11/09 06:23:32;;;;;;;6.47;2.40;;;;;;;11.93;98.71;100464.25;5058747;28;20020;-75
2022/11/09 06:26:02;;;;;;;5.35;1.90;;;;;;;11.79;99.29;100469.78;5043182;28;20025;-75
2022/11/09 06:28:28;;;;;;;12.68;1.85;;;;;;;11.79;99.04;100475.41;5054359;28;20028;-76
2022/11/09 06:30:58;;;;;;;12.85;2.03;;;;;;;11.77;99.93;100475.00;5050925;28;20047;-75
2022/11/09 06:33:25;;;;;;;15.75;3.67;;;;;;;11.77;99.75;100480.59;5043638;28;20036;-76
2022/11/09 06:35:50;;;;;;;8.45;2.92;;;;;;;11.83;99.53;100478.19;5056838;28;20032;-75
2022/11/09 06:38:15;;;;;;;7.60;1.98;;;;;;;11.73;99.94;100483.38;5058051;28;22806;-75
2022/11/09 06:40:41;;;;;;;7.22;2.10;;;;;;;11.72;99.86;100472.56;5037099;28;20388;-75
2022/11/09 06:43:06;;;;;;;12.48;3.05;;;;;;;11.71;100.00;100484.97;5036048;28;20044;-76
2022/11/09 06:45:32;;;;;;;10.82;3.53;;;;;;;11.72;99.97;100478.97;5051525;28;20024;-75
2022/11/09 06:48:00;;;;;;;6.45;2.17;;;;;;;11.78;100.00;100490.59;5057960;28;20025;-76
2022/11/09 06:50:27;;;;;;;12.93;2.78;;;;;;;11.69;100.00;100482.56;5043311;28;20100;-75
2022/11/09 06:53:03;;;;;;;6.88;2.00;;;;;;;11.76;100.00;100493.00;5059130;28;20036;-76
2022/11/09 06:55:31;;;;;;;16.10;2.30;;;;;;;11.75;100.00;100492.19;5054944;28;20402;-75
2022/11/09 06:57:57;;;;;;;9.32;2.55;;;;;;;11.65;100.00;100503.38;5054612;28;20089;-76
2022/11/09 07:00:23;;;;;;;7.05;2.28;;;;;;;11.64;100.00;100498.94;5032021;28;20177;-76
2022/11/09 07:02:49;;;;;;;11.32;3.75;;;;;;;11.65;100.00;100504.16;5057120;28;20047;-76
2022/11/09 07:05:14;;;;;;;8.85;3.33;;;;;;;11.61;100.00;100494.94;5053977;28;20045;-75
2022/11/09 07:07:40;;;;;;;9.27;2.50;;;;;;;11.59;100.00;100506.56;5054714;28;20028;-75
2022/11/09 07:10:06;;;;;;;10.07;2.53;;;;;;;11.62;100.00;100504.19;5058070;28;20495;-75
2022/11/09 07:12:33;;;;;;;10.32;2.17;;;;;;;11.59;100.00;100514.16;5050140;28;20033;-76
2022/11/09 07:14:59;;;;;;;18.40;3.08;;;;;;;11.67;100.00;100512.19;5057476;28;20052;-76
2022/11/09 07:17:24;;;;;;;9.93;3.20;;;;;;;11.79;100.00;100517.47;5061173;28;20127;-77
2022/11/09 07:19:49;;;;;;;13.95;2.40;;;;;;;11.67;100.00;100523.41;5061983;28;20770;-76
2022/11/09 07:22:15;;;;;;;10.20;2.58;;;;;;;11.65;100.00;100515.38;5054679;28;20051;-76
2022/11/09 07:24:40;;;;;;;14.20;4.13;;;;;;;11.66;100.00;100527.41;5037407;28;20028;-76
2022/11/09 07:27:05;;;;;;;9.52;2.35;;;;;;;11.68;100.00;100519.41;5046767;28;20495;-77
2022/11/09 07:29:31;;;;;;;10.57;2.90;;;;;;;11.64;100.00;100526.97;5054379;28;20028;-76
2022/11/09 07:31:56;;;;;;;9.52;2.75;;;;;;;11.58;100.00;100513.34;5062764;28;20545;-76
2022/11/09 07:34:21;;;;;;;16.02;3.03;;;;;;;11.64;100.00;100522.22;5054189;28;20028;-76
2022/11/09 07:36:46;;;;;;;11.77;3.15;;;;;;;11.58;100.00;100516.16;5047186;28;20051;-76
2022/11/09 07:39:12;;;;;;;12.07;3.42;;;;;;;11.56;100.00;100524.16;5048550;28;20120;-76
2022/11/09 07:41:37;;;;;;;11.93;3.35;;;;;;;11.64;100.00;100527.81;5053758;28;20021;-76
2022/11/09 07:44:04;;;;;;;10.07;2.97;;;;;;;11.63;100.00;100522.59;5038548;28;20399;-76
2022/11/09 07:46:29;;;;;;;8.80;2.80;;;;;;;11.64;100.00;100529.78;5040643;28;20064;-76
2022/11/09 07:48:54;;;;;;;9.45;2.58;;;;;;;11.70;100.00;100522.59;5054320;28;20110;-76
2022/11/09 07:51:20;;;;;;;9.57;2.35;;;;;;;11.71;100.00;100535.44;5053066;28;20058;-76
2022/11/09 07:53:45;;;;;;;9.43;2.88;;;;;;;11.70;100.00;100536.63;5055202;28;20031;-76
2022/11/09 07:56:11;;;;;;;5.97;2.65;;;;;;;11.68;100.00;100537.03;5054774;28;20033;-76
2022/11/09 07:58:36;;;;;;;9.48;2.40;;;;;;;11.71;100.00;100543.84;5051737;28;20170;-76
2022/11/09 08:01:09;;;;;;;13.15;3.17;;;;;;;11.67;100.00;100545.84;5054885;28;20487;-76
2022/11/09 08:03:35;;;;;;;8.90;2.95;;;;;;;11.72;100.00;100537.03;5051382;28;20032;-76
2022/11/09 08:06:00;;;;;;;13.38;2.88;;;;;;;11.71;100.00;100536.25;5041761;28;20482;-76
2022/11/09 08:08:25;;;;;;;7.30;2.97;;;;;;;11.74;100.00;100537.44;5055913;28;20100;-77
2022/11/09 08:10:51;;;;;;;16.92;3.30;;;;;;;11.74;100.00;100546.69;5053581;28;20059;-76
2022/11/09 08:13:18;;;;;;;11.50;4.13;;;;;;;11.79;100.00;100537.09;5058109;28;20049;-76
2022/11/09 08:15:44;;;;;;;9.48;2.50;;;;;;;11.78;100.00;100547.50;5045856;28;20032;-76
2022/11/09 08:18:14;;;;;;;6.78;2.67;;;;;;;11.81;100.00;100551.50;5052955;28;20036;-76
2022/11/09 08:20:39;;;;;;;12.90;3.72;;;;;;;11.83;100.00;100537.91;5044323;28;20035;-76
2022/11/09 08:23:05;;;;;;;12.77;2.60;;;;;;;11.92;100.00;100541.16;5057545;28;20025;-76
2022/11/09 08:25:34;;;;;;;8.80;3.67;;;;;;;11.91;100.00;100550.78;5038802;28;20023;-76
2022/11/09 08:28:02;;;;;;;14.57;3.45;;;;;;;11.86;100.00;100547.53;5066188;28;20228;-76
2022/11/09 08:30:27;;;;;;;13.18;2.85;;;;;;;11.88;100.00;100545.13;5058984;28;20434;-76
2022/11/09 08:32:52;;;;;;;15.68;3.10;;;;;;;11.91;100.00;100547.97;5054045;28;20024;-76
2022/11/09 08:35:21;;;;;;;12.57;2.92;;;;;;;11.93;100.00;100533.53;5064512;28;20024;-76
2022/11/09 08:37:50;;;;;;;10.38;2.78;;;;;;;11.92;100.00;100555.19;5066145;28;20024;-76
2022/11/09 08:40:18;;;;;;;12.25;2.92;;;;;;;11.91;100.00;100553.59;5057484;28;20116;-76
2022/11/09 08:42:44;;;;;;;13.88;3.45;;;;;;;11.95;100.00;100554.41;5054295;28;20024;-76
2022/11/09 08:45:10;;;;;;;5.63;2.80;;;;;;;11.96;100.00;100553.19;5048352;28;20035;-76
2022/11/09 08:47:35;;;;;;;12.10;3.38;;;;;;;12.01;100.00;100554.81;5051837;28;20498;-76
2022/11/09 08:50:03;;;;;;;12.05;3.70;;;;;;;12.02;100.00;100562.03;5067865;28;20024;-76
2022/11/09 08:52:28;;;;;;;14.57;3.60;;;;;;;12.00;100.00;100554.00;5059097;28;20032;-76
2022/11/09 08:54:53;;;;;;;12.70;4.22;;;;;;;11.98;100.00;100562.03;5070485;28;20033;-76
2022/11/09 08:57:19;;;;;;;14.88;3.67;;;;;;;12.02;100.00;100566.81;5043199;28;20031;-76
2022/11/09 08:59:45;;;;;;;9.35;3.40;;;;;;;12.08;99.98;100565.25;5065292;28;20483;-77
2022/11/09 09:02:12;;;;;;;8.48;3.58;;;;;;;12.08;100.00;100565.25;5067386;28;20032;-76
2022/11/09 09:04:37;;;;;;;15.30;3.58;;;;;;;12.08;99.76;100566.06;5052053;28;20345;-76
2022/11/09 09:07:03;;;;;;;17.00;3.75;;;;;;;12.10;99.93;100562.84;5055965;28;20460;-75
2022/11/09 09:09:28;;;;;;;11.70;3.15;;;;;;;12.08;99.76;100570.84;5057945;28;20064;-76
2022/11/09 09:11:53;;;;;;;13.23;3.33;;;;;;;12.12;99.63;100566.88;5037703;28;20068;-75
2022/11/09 09:14:19;;;;;;;7.45;3.13;;;;;;;12.11;99.52;100558.84;5059708;28;20032;-75
2022/11/09 09:16:44;;;;;;;10.93;3.75;;;;;;;12.19;98.88;100566.09;5064788;28;20067;-76
2022/11/09 09:19:09;;;;;;;11.85;3.72;;;;;;;12.26;98.76;100571.72;5054633;28;20021;-76
2022/11/09 09:21:35;;;;;;;12.98;3.90;;;;;;;12.26;98.74;100573.72;5070232;28;20039;-76
2022/11/09 09:24:00;;;;;;;10.63;4.35;;;;;;;12.28;98.65;100576.94;5071449;28;20031;-76
2022/11/09 09:26:25;;;;;;;12.25;3.40;;;;;;;12.25;98.27;100581.34;5063540;28;20375;-76
2022/11/09 09:28:51;;;;;;;13.70;4.20;;;;;;;12.29;98.02;100587.78;5056336;28;20040;-76
2022/11/09 09:31:16;;;;;;;11.77;4.15;;;;;;;12.36;98.07;100587.00;5059552;28;20470;-76
2022/11/09 09:33:42;;;;;;;18.08;4.63;;;;;;;12.34;97.33;100584.56;5057287;28;20157;-76
2022/11/09 09:36:14;;;;;;;11.65;4.10;;;;;;;12.52;97.82;100589.41;5063753;28;20020;-76
2022/11/09 09:38:39;;;;;;;15.23;4.57;;;;;;;12.50;96.29;100586.19;5059654;28;20087;-76
2022/11/09 09:41:06;;;;;;;18.20;3.95;;;;;;;12.44;97.08;100607.44;5046090;28;20067;-76
2022/11/09 09:43:41;;;;;;;14.30;4.63;;;;;;;12.48;97.08;100600.66;5045433;28;20021;-76
2022/11/09 09:46:36;;;;;;;13.73;4.90;;;;;;;12.52;96.59;100595.03;5058519;28;20039;-76
2022/11/09 09:49:13;;;;;;;11.20;4.05;;;;;;;12.53;95.92;100602.25;5058201;28;20028;-76
2022/11/09 09:51:40;;;;;;;7.50;3.33;;;;;;;12.50;96.37;100603.88;5057661;28;20047;-76
2022/11/09 09:54:06;;;;;;;15.32;5.60;;;;;;;12.51;96.04;100608.25;5033207;28;20032;-76
2022/11/09 09:56:34;;;;;;;16.60;5.03;;;;;;;12.57;95.52;100608.69;5057848;28;20039;-76
2022/11/09 09:59:25;;;;;;;18.70;4.85;;;;;;;12.54;95.63;100606.66;5049620;28;20534;-76
2022/11/09 10:01:51;;;;;;;13.52;5.03;;;;;;;12.61;95.36;100615.13;5055697;28;20033;-75
2022/11/09 10:04:16;;;;;;;11.00;4.85;;;;;;;12.63;95.44;100612.72;5058850;28;20465;-76
2022/11/09 10:07:15;;;;;;;10.23;4.95;;;;;;;12.70;95.13;100617.53;5053869;28;20103;-76
2022/11/09 10:10:01;;;;;;;13.00;5.75;;;;;;;12.73;94.53;100623.16;5020451;28;20101;-76
2022/11/09 10:13:00;;;;;;;15.45;5.35;;;;;;;12.75;93.53;100620.72;5049302;28;20041;-76
2022/11/09 10:15:48;;;;;;;17.30;6.20;;;;;;;12.76;93.88;100625.16;5046520;28;20035;-76
2022/11/09 10:18:35;;;;;;;18.27;5.90;;;;;;;12.74;93.98;100624.75;5065983;28;20527;-76
2022/11/09 10:21:20;;;;;;;11.00;5.20;;;;;;;12.78;93.57;100628.38;5058672;28;20058;-76
2022/11/09 10:23:58;;;;;;;12.80;5.45;;;;;;;12.80;93.96;100631.59;5069645;28;20445;-76
2022/11/09 10:26:29;;;;;;;14.10;5.22;;;;;;;12.79;94.43;100635.59;5060127;28;20217;-76
2022/11/09 10:29:00;;;;;;;12.05;4.20;;;;;;;12.88;93.56;100628.78;5050087;28;20640;-76
2022/11/09 10:31:32;;;;;;;12.55;3.83;;;;;;;12.84;93.64;100619.53;5064621;28;20036;-76
2022/11/09 10:34:25;;;;;;;16.88;5.03;;;;;;;12.92;93.29;100612.72;5061515;28;20095;-75
2022/11/09 10:37:28;;;;;;;10.60;4.10;;;;;;;12.90;93.28;100620.75;5066347;28;20028;-76
2022/11/09 10:40:08;;;;;;;10.80;4.00;;;;;;;12.87;93.62;100624.38;5001561;28;20045;-75
2022/11/09 10:42:34;;;;;;;13.65;3.65;;;;;;;12.86;93.33;100611.50;5056192;28;20031;-76
2022/11/09 10:45:27;;;;;;;6.57;3.60;;;;;;;12.82;92.01;100614.34;5050071;28;20395;-76
2022/11/09 10:47:53;;;;;;;9.63;3.72;;;;;;;12.86;91.77;100614.31;5033487;28;20077;-76
2022/11/09 10:50:40;;;;;;;11.25;4.65;;;;;;;12.88;91.47;100611.91;5046315;28;20419;-76
2022/11/09 10:53:26;;;;;;;11.60;3.30;;;;;;;12.88;91.06;100623.16;5052792;28;20109;-76
2022/11/09 10:56:19;;;;;;;17.27;3.72;;;;;;;12.94;90.54;100613.13;5060910;28;20029;-76
2022/11/09 10:58:51;;;;;;;7.55;2.25;;;;;;;12.92;91.21;100610.75;5067527;28;20040;-76
2022/11/09 11:01:22;;;;;;;10.20;3.33;;;;;;;12.89;91.66;100619.16;5064609;28;20044;-76
2022/11/09 11:03:53;;;;;;;7.85;2.75;;;;;;;12.86;90.99;100617.97;5069701;28;20023;-76
2022/11/09 11:06:21;;;;;;;12.15;3.33;;;;;;;12.84;90.85;100625.97;5056627;28;20038;-76
2022/11/09 11:09:11;;;;;;;12.45;3.25;;;;;;;12.88;90.87;100628.78;5049504;28;20031;-76
2022/11/09 11:11:38;;;;;;;8.20;2.60;;;;;;;12.85;90.25;100629.59;5045887;28;20089;-76
2022/11/09 11:14:03;;;;;;;11.50;3.08;;;;;;;12.93;90.34;100617.94;5047076;28;20117;-76
2022/11/09 11:16:33;;;;;;;11.93;3.80;;;;;;;12.93;90.84;100631.19;5046113;28;20364;-76
2022/11/09 11:19:00;;;;;;;6.70;2.55;;;;;;;12.89;89.80;100613.53;5056400;28;20028;-75
2022/11/09 11:21:27;;;;;;;9.82;3.50;;;;;;;12.97;90.14;100615.94;5033601;28;20037;-76
2022/11/09 11:24:17;;;;;;;11.20;2.67;;;;;;;13.04;90.71;100617.16;5061670;28;20032;-76
2022/11/09 11:27:05;;;;;;;10.63;3.78;;;;;;;13.17;89.01;100613.53;5068667;28;20035;-76
2022/11/09 11:29:48;;;;;;;13.60;3.03;;;;;;;13.28;89.35;100612.72;5056287;28;20452;-76
2022/11/09 11:32:14;;;;;;;;;;;;;;;13.19;89.25;100627.97;5056578;28;20028;-76
2022/11/09 11:34:40;;;;;;;10.88;3.38;;;;;;;13.29;89.20;100615.16;5064157;28;19916;-76
2022/11/09 11:37:25;;;;;;;8.55;3.25;;;;;;;13.27;88.90;100613.94;5061251;28;20111;-76
2022/11/09 11:40:16;;;;;;;8.70;2.85;;;;;;;13.17;89.25;100607.91;5048707;28;20032;-76
2022/11/09 11:43:01;;;;;;;9.05;3.47;;;;;;;13.25;87.54;100607.91;5061439;28;20399;-76
2022/11/09 11:45:32;;;;;;;13.77;3.88;;;;;;;13.23;88.44;100609.09;5051315;28;20053;-76
2022/11/09 11:48:39;;;;;;;9.40;3.42;;;;;;;13.22;87.63;100610.31;5047130;28;20059;-76
2022/11/09 11:51:23;;;;;;;16.42;3.15;;;;;;;13.26;88.42;100606.69;4997081;28;20037;-76
2022/11/09 11:54:04;;;;;;;11.57;3.42;;;;;;;13.39;88.25;100602.31;5057191;28;20051;-76
2022/11/09 11:56:45;;;;;;;12.40;3.60;;;;;;;13.41;86.83;100605.53;5057238;28;20109;-75
2022/11/09 11:59:19;;;;;;;10.98;3.75;;;;;;;13.51;86.83;100598.25;5060937;28;20110;-76
2022/11/09 12:02:10;;;;;;;7.50;3.10;;;;;;;13.52;85.86;100600.66;5059250;28;20028;-76
2022/11/09 12:05:13;;;;;;;7.78;3.75;;;;;;;13.58;85.19;100596.25;5051248;28;20111;-76
2022/11/09 12:08:06;;;;;;;8.45;2.78;;;;;;;13.63;85.17;100600.63;5044469;28;20051;-76
2022/11/09 12:11:04;;;;;;;6.97;3.35;;;;;;;13.65;85.31;100597.44;5058468;28;20029;-76
2022/11/09 12:13:46;;;;;;;12.15;3.40;;;;;;;13.60;83.99;100607.88;5040990;28;20131;-76
2022/11/09 12:16:34;;;;;;;6.72;2.80;;;;;;;13.49;84.55;100600.66;5060636;28;20028;-76
2022/11/09 12:19:08;;;;;;;9.05;3.13;;;;;;;13.46;84.15;100602.28;5058708;28;20090;-76
2022/11/09 12:21:42;;;;;;;6.32;2.97;;;;;;;13.45;86.15;100600.69;5058506;28;20086;-76
2022/11/09 12:24:08;;;;;;;14.15;3.63;;;;;;;13.42;85.63;100609.91;5034825;28;20036;-76
2022/11/09 12:26:46;;;;;;;9.13;3.20;;;;;;;13.43;85.89;100603.09;5040548;28;20037;-76
2022/11/09 12:29:54;;;;;;;8.38;2.75;;;;;;;13.39;83.75;100614.34;5059950;28;20174;-76
2022/11/09 12:32:29;;;;;;;8.75;3.38;;;;;;;13.41;84.37;100608.34;5061054;28;20521;-76
2022/11/09 12:35:09;;;;;;;6.30;2.78;;;;;;;13.35;86.27;100601.50;5035130;28;20029;-76
2022/11/09 12:37:41;;;;;;;7.95;2.65;;;;;;;13.42;83.74;100604.31;5037358;28;20025;-76
2022/11/09 12:40:16;;;;;;;9.32;2.47;;;;;;;13.42;80.90;100607.13;5052721;28;20542;-76
2022/11/09 12:42:48;;;;;;;5.68;2.65;;;;;;;13.36;83.58;100614.34;5055220;28;20479;-76
2022/11/09 12:45:34;;;;;;;5.53;2.30;;;;;;;13.31;81.07;100609.16;5066250;28;20043;-76
2022/11/09 12:48:39;;;;;;;6.35;2.55;;;;;;;13.23;81.05;100605.50;5039322;28;20085;-76
2022/11/09 12:51:07;;;;;;;6.13;2.40;;;;;;;13.23;83.31;100606.28;5058719;28;20059;-76
2022/11/09 12:53:37;;;;;;;8.15;2.08;;;;;;;13.33;81.09;100609.53;5059557;28;20033;-76
2022/11/09 12:56:13;;;;;;;8.48;2.90;;;;;;;13.48;82.26;100607.50;5039957;28;20052;-76
2022/11/09 12:58:39;;;;;;;5.95;2.20;;;;;;;13.59;81.52;100606.25;5065563;28;20032;-76
2022/11/09 13:01:09;;;;;;;6.97;2.40;;;;;;;13.55;82.78;100602.66;5054009;28;20021;-76
2022/11/09 13:03:50;;;;;;;5.85;2.10;;;;;;;13.46;83.21;100613.53;5056833;28;20043;-76
2022/11/09 13:06:24;;;;;;;8.43;2.63;;;;;;;13.45;84.22;100620.38;5062969;28;20033;-76
2022/11/09 13:08:58;;;;;;;7.22;1.90;;;;;;;13.42;84.19;100629.59;5036655;28;20033;-76
2022/11/09 13:11:51;;;;;;;5.63;2.13;;;;;;;13.34;85.18;100637.22;5062818;28;20464;-75
2022/11/09 13:14:27;;;;;;;9.02;2.47;;;;;;;13.36;84.79;100642.47;5046429;28;20086;-76
2022/11/09 13:16:58;;;;;;;7.00;2.05;;;;;;;13.27;85.07;100644.84;5029993;28;20083;-76
2022/11/09 13:19:33;;;;;;;4.88;1.88;;;;;;;13.21;87.53;100648.06;5045741;28;20024;-76
2022/11/09 13:22:11;;;;;;;5.35;2.15;;;;;;;13.30;87.24;100650.50;5038542;28;20102;-76
2022/11/09 13:24:51;;;;;;;8.80;3.20;;;;;;;13.36;86.96;100642.47;5046863;28;20541;-76
2022/11/09 13:27:31;;;;;;;10.88;3.35;;;;;;;13.28;87.45;100661.31;5058965;28;20090;-76
2022/11/09 13:29:58;;;;;;;5.15;2.55;;;;;;;13.21;88.70;100659.28;5053055;28;20128;-76
2022/11/09 13:32:29;;;;;;;7.63;2.53;;;;;;;13.31;87.60;100670.97;5047515;28;20131;-76
2022/11/09 13:34:56;;;;;;;6.95;2.50;;;;;;;13.35;86.22;100668.97;5030865;28;20024;-75
2022/11/09 13:37:55;;;;;;;5.57;2.28;;;;;;;13.36;87.15;100668.56;5031567;28;20051;-76
2022/11/09 13:40:30;;;;;;;4.35;2.47;;;;;;;13.37;85.52;100677.81;5034238;28;20044;-76
2022/11/09 13:42:59;;;;;;;9.80;2.83;;;;;;;13.30;86.16;100675.00;5048354;28;20055;-76
2022/11/09 13:45:33;;;;;;;6.13;2.50;;;;;;;13.30;85.73;100681.44;5064885;28;20032;-76
2022/11/09 13:47:59;;;;;;;6.47;2.78;;;;;;;13.29;87.80;100687.44;5052759;28;20666;-76
2022/11/09 13:50:27;;;;;;;7.03;3.28;;;;;;;13.26;87.11;100671.34;5039222;28;20033;-76
2022/11/09 13:52:55;;;;;;;6.03;3.10;;;;;;;13.15;86.24;100683.38;5032737;28;20648;-76
2022/11/09 13:55:39;;;;;;;8.18;2.38;;;;;;;13.16;86.09;100682.19;5052617;28;20024;-76
2022/11/09 13:58:27;;;;;;;12.60;3.85;;;;;;;13.21;86.54;100684.59;5033709;28;20029;-76
2022/11/09 14:00:52;;;;;;;7.18;2.58;;;;;;;13.15;84.86;100682.59;5037306;28;20086;-76
2022/11/09 14:03:24;;;;;;;4.60;3.05;;;;;;;13.14;89.18;100681.78;5058705;28;20036;-76
2022/11/09 14:05:54;;;;;;;7.45;2.50;;;;;;;13.13;86.64;100685.00;5054266;28;20037;-76
2022/11/09 14:08:33;;;;;;;9.20;2.65;;;;;;;13.22;86.59;100694.63;5053444;28;20024;-76
2022/11/09 14:11:18;;;;;;;12.73;2.97;;;;;;;13.16;85.84;100689.81;5055022;28;20052;-76
2022/11/09 14:14:17;;;;;;;7.78;3.15;;;;;;;13.17;83.55;100700.66;5033534;28;20045;-76
2022/11/09 14:16:55;;;;;;;7.72;3.10;;;;;;;13.20;85.09;100702.66;5039672;28;20059;-76
2022/11/09 14:19:49;;;;;;;7.07;2.28;;;;;;;13.23;83.49;100701.84;5057563;28;20036;-75
2022/11/09 14:22:17;;;;;;;5.45;2.40;;;;;;;13.16;84.88;100704.66;5054702;28;20043;-76
2022/11/09 14:24:44;;;;;;;7.28;2.40;;;;;;;13.11;84.02;100710.69;5049364;28;20025;-75
2022/11/09 14:27:09;;;;;;;4.55;2.53;;;;;;;13.17;86.78;100703.47;5053787;28;20048;-75
2022/11/09 14:29:56;;;;;;;5.85;2.85;;;;;;;13.23;84.55;100712.31;5056067;28;20134;-76
2022/11/09 14:32:35;;;;;;;5.30;2.78;;;;;;;13.28;84.49;100702.66;5052455;28;20778;-75
2022/11/09 14:35:18;;;;;;;2.95;1.77;;;;;;;13.25;84.90;100701.47;5053055;28;20777;-76
2022/11/09 14:37:44;;;;;;;8.52;2.30;;;;;;;13.17;85.51;100709.06;5050947;28;20112;-76
2022/11/09 14:40:35;;;;;;;5.95;1.90;;;;;;;13.10;84.80;100709.06;5043586;28;20092;-76
2022/11/09 14:43:22;;;;;;;5.60;2.10;;;;;;;13.04;87.30;100716.28;5050944;28;20504;-76
2022/11/09 14:45:53;;;;;;;5.97;2.38;;;;;;;13.06;84.75;100715.91;5039952;28;20508;-76
2022/11/09 14:48:20;;;;;;;3.85;2.05;;;;;;;13.07;85.27;100720.31;5052879;28;20029;-76
2022/11/09 14:50:47;;;;;;;5.32;1.50;;;;;;;13.07;86.64;100720.31;5043987;28;20032;-76
2022/11/09 14:53:23;;;;;;;5.07;2.90;;;;;;;13.03;86.75;100720.31;5055587;28;20445;-76
2022/11/09 14:55:50;;;;;;;7.97;1.70;;;;;;;13.04;84.34;100726.75;5058084;28;20115;-76
2022/11/09 14:58:17;;;;;;;6.45;1.80;;;;;;;13.06;83.89;100729.94;5061867;28;20029;-76
2022/11/09 15:00:42;;;;;;;9.90;2.00;;;;;;;13.06;86.97;100741.19;5053158;28;20506;-76
2022/11/09 15:03:26;;;;;;;10.35;2.63;;;;;;;13.02;85.47;100741.19;5038338;28;20025;-76
2022/11/09 15:06:06;;;;;;;8.07;1.83;;;;;;;13.06;86.11;100741.19;5055384;28;20479;-76
2022/11/09 15:08:33;;;;;;;7.82;2.30;;;;;;;13.01;85.16;100739.59;5053379;28;20079;-76
2022/11/09 15:10:58;;;;;;;4.75;1.52;;;;;;;13.01;85.50;100750.81;5052922;28;20379;-76
2022/11/09 15:13:42;;;;;;;5.78;1.88;;;;;;;12.99;84.48;100747.59;5048736;28;20064;-76
2022/11/09 15:16:22;;;;;;;7.00;1.83;;;;;;;12.97;85.21;100750.81;5039869;28;20048;-76
2022/11/09 15:18:48;;;;;;;6.63;1.90;;;;;;;12.98;86.75;100754.41;5051896;28;20028;-76
2022/11/09 15:21:18;;;;;;;3.47;1.70;;;;;;;12.94;84.54;100759.22;5050419;28;20029;-76
2022/11/09 15:23:48;;;;;;;6.82;2.67;;;;;;;12.94;86.23;100778.88;5037401;28;20059;-76
2022/11/09 15:26:33;;;;;;;7.75;1.80;;;;;;;12.92;84.84;100764.44;5053299;28;20056;-76
2022/11/09 15:28:59;;;;;;;8.63;1.65;;;;;;;12.93;86.83;100754.81;5062203;28;20021;-76
2022/11/09 15:31:27;;;;;;;7.13;1.63;;;;;;;12.88;85.78;100760.78;5052505;28;20039;-76
2022/11/09 15:33:56;;;;;;;6.10;1.60;;;;;;;12.86;84.66;100757.59;5041753;28;20035;-76
2022/11/09 15:36:32;;;;;;;3.42;1.30;;;;;;;12.85;86.37;100772.84;5055467;28;20443;-76
2022/11/09 15:39:00;;;;;;;9.27;1.67;;;;;;;12.95;86.16;100767.25;5063398;28;20384;-76
2022/11/09 15:41:26;;;;;;;8.00;1.85;;;;;;;12.86;84.89;100766.84;5049424;28;20127;-76
2022/11/09 15:43:52;;;;;;;6.78;1.77;;;;;;;12.82;86.74;100772.44;5048379;28;20043;-76
2022/11/09 15:46:43;;;;;;;8.65;2.92;;;;;;;12.79;88.62;100776.00;5056312;28;20033;-76
2022/11/09 15:49:22;;;;;;;7.30;1.38;;;;;;;12.76;86.04;100778.84;5044335;28;20085;-75
2022/11/09 15:51:48;;;;;;;5.22;1.67;;;;;;;12.80;88.00;100786.06;5062440;28;20040;-76
2022/11/09 15:54:14;;;;;;;5.78;1.80;;;;;;;12.75;91.00;100799.69;5053965;28;20032;-76
2022/11/09 15:56:40;;;;;;;7.70;1.90;;;;;;;12.64;90.70;100793.22;5055124;28;20044;-75
2022/11/09 15:59:11;;;;;;;8.30;2.22;;;;;;;12.70;92.87;100806.47;5055923;28;20025;-76
2022/11/09 16:01:38;;;;;;;7.35;1.98;;;;;;;12.59;92.42;100808.44;5032860;28;20028;-76
2022/11/09 16:04:04;;;;;;;5.95;2.67;;;;;;;12.57;93.54;100825.69;5052193;28;20036;-76
2022/11/09 16:06:29;;;;;;;5.65;1.90;;;;;;;12.57;94.98;100827.69;5041878;28;20039;-76
2022/11/09 16:08:55;;;;;;;7.13;2.17;;;;;;;12.33;97.76;100815.09;5033150;28;20039;-75
2022/11/09 16:11:20;;;;;;;7.22;2.25;;;;;;;12.29;98.76;100814.28;5035928;28;20025;-75
2022/11/09 16:13:45;;;;;;;10.15;2.58;;;;;;;12.31;98.17;100821.13;5037622;28;20044;-75
2022/11/09 16:16:13;;;;;;;8.82;2.95;;;;;;;12.04;100.00;100828.13;5054913;28;20419;-75
2022/11/09 16:18:39;;;;;;;7.97;2.95;;;;;;;12.32;99.46;100821.94;5044304;28;20151;-75
2022/11/09 16:21:16;;;;;;;6.82;2.50;;;;;;;12.32;100.00;100833.94;5052856;28;20285;-75
2022/11/09 16:23:41;;;;;;;2.17;1.75;;;;;;;12.11;100.00;100856.25;5041271;28;20024;-75
2022/11/09 16:26:12;;;;;;;7.28;1.63;;;;;;;12.15;100.00;100869.09;5052643;28;20068;-76
2022/11/09 16:28:39;;;;;;;7.22;2.20;;;;;;;12.05;100.00;100863.41;5035234;28;20032;-75
2022/11/09 16:31:05;;;;;;;5.88;2.25;;;;;;;12.33;100.00;100874.88;5056999;28;20024;-75
2022/11/09 16:33:30;;;;;;;7.93;2.63;;;;;;;12.14;100.00;100875.09;5051946;28;20197;-76
2022/11/09 16:35:59;;;;;;;6.82;2.53;;;;;;;12.05;100.00;100874.63;5053418;28;20091;-75
2022/11/09 16:38:29;;;;;;;12.68;3.92;;;;;;;11.91;100.00;100881.75;5050917;28;20519;-75
2022/11/09 16:40:54;;;;;;;7.97;3.13;;;;;;;11.91;100.00;100884.56;5039880;28;20515;-75
2022/11/09 16:43:20;;;;;;;11.95;3.15;;;;;;;11.97;100.00;100884.97;5058838;28;20056;-75
2022/11/09 16:45:48;;;;;;;8.07;2.53;;;;;;;11.94;100.00;100897.00;5055107;28;20281;-75
2022/11/09 16:48:16;;;;;;;7.30;2.13;;;;;;;11.95;100.00;100890.19;5051657;28;20387;-75
2022/11/09 16:50:42;;;;;;;7.40;2.35;;;;;;;11.99;100.00;100900.25;5057972;28;20028;-75
2022/11/09 16:53:07;;;;;;;7.38;2.20;;;;;;;11.83;100.00;100901.66;5057715;28;20365;-75
2022/11/09 16:55:32;;;;;;;6.90;2.70;;;;;;;11.96;100.00;100905.81;5053772;28;20021;-76
2022/11/09 16:57:58;;;;;;;9.57;3.25;;;;;;;11.98;100.00;100915.47;5032669;28;20063;-75
2022/11/09 17:00:23;;;;;;;8.52;2.80;;;;;;;11.96;100.00;100923.47;5038346;28;20154;-76
2022/11/09 17:02:49;;;;;;;18.02;7.97;;;;;;;11.74;100.00;100921.59;5032572;28;20021;-75
2022/11/09 17:05:14;;;;;;;10.70;3.90;;;;;;;11.74;100.00;100927.19;5052767;28;21128;-75
2022/11/09 17:07:39;;;;;;;8.23;2.30;;;;;;;11.77;100.00;100923.66;5021928;28;20442;-75
2022/11/09 17:10:05;;;;;;;17.48;3.05;;;;;;;11.83;100.00;100930.53;5054623;28;20063;-75
2022/11/09 17:12:31;;;;;;;6.95;2.40;;;;;;;11.89;100.00;100942.22;5052202;28;20511;-75
2022/11/09 17:14:57;;;;;;;5.53;1.77;;;;;;;11.98;100.00;100943.50;5040957;28;20120;-75
2022/11/09 17:17:22;;;;;;;11.50;2.45;;;;;;;11.89;100.00;100948.66;5035843;28;20071;-75
2022/11/09 17:19:47;;;;;;;9.93;2.78;;;;;;;11.89;100.00;100945.84;5056098;28;20068;-75
2022/11/09 17:22:13;;;;;;;10.73;4.10;;;;;;;11.85;100.00;100950.56;5053114;28;20039;-75
2022/11/09 17:24:39;;;;;;;11.05;2.85;;;;;;;11.85;100.00;100967.41;5034380;28;20301;-75
2022/11/09 17:27:08;;;;;;;10.55;3.42;;;;;;;11.99;100.00;100976.00;5037736;28;20021;-75
2022/11/09 17:29:33;;;;;;;5.60;3.00;;;;;;;11.93;100.00;100980.34;5052217;28;20031;-75
2022/11/09 17:31:58;;;;;;;8.77;3.03;;;;;;;11.98;100.00;100974.38;5054013;28;20025;-75
2022/11/09 17:34:24;;;;;;;6.65;2.97;;;;;;;11.71;100.00;100976.44;5028718;28;20066;-75
2022/11/09 17:36:49;;;;;;;9.30;2.60;;;;;;;11.83;100.00;100975.41;5055488;28;20173;-75
2022/11/09 17:39:14;;;;;;;8.77;2.38;;;;;;;11.88;100.00;100977.88;5054684;28;20491;-75
2022/11/09 17:41:40;;;;;;;6.95;2.75;;;;;;;11.87;100.00;100981.84;5055661;28;20075;-75
2022/11/09 17:44:05;;;;;;;7.30;2.42;;;;;;;11.84;100.00;100981.81;5059205;28;20075;-75